Terminal Aerodrome Forecast
Issued by NWS Omaha/Valley, NE

Home | Current Version | Previous Version | Text Only | Print | Product List | Glossary On
Versions: 1 2 3 4 5 6 7 8 9 10 11 12 13 14 15 16 17 18 19 20 21
000
FTUS43 KOAX 170117 AAA
TAFOMA
TAF AMD
KOMA 170117Z 1701/1724 36010KT 5SM BR OVC005
      TEMPO 1701/1704 4SM -RA
     FM170600 33011KT 4SM BR OVC008
     FM171500 33008KT 5SM BR OVC025
     FM171800 28006KT P6SM SCT250=

USA.gov is the U.S. government's official web portal to all federal, state and local government web resources and services.